Time;durP1;ratioP1;P1;durP2;ratioP2;P2;SDS_P1;SDS_P2;PMS_P1;PMS_P2;Temp;Humidity;BMP_temperature;BMP_pressure;BME280_temperature;BME280_humidity;BME280_pressure;Samples;Min_cycle;Max_cycle;Signal;HPM_P1;HPM_P2
2023/08/25 00:00:25;;;;;;;5.97;2.93;;;;;;;25.70;73.56;99911.13;5098242;28;20253;-64
2023/08/25 00:02:50;;;;;;;3.83;2.23;;;;;;;25.78;73.01;99898.19;5092103;28;20177;-65
2023/08/25 00:05:15;;;;;;;4.00;3.07;;;;;;;25.68;73.29;99904.97;5098864;28;20192;-64
2023/08/25 00:07:41;;;;;;;6.97;3.13;;;;;;;25.53;73.81;99903.56;5088273;28;20201;-64
2023/08/25 00:10:07;;;;;;;4.13;2.97;;;;;;;25.59;73.80;99896.03;5071652;28;20229;-64
2023/08/25 00:12:32;;;;;;;5.57;2.87;;;;;;;25.42;74.53;99902.94;5108301;28;20589;-64
2023/08/25 00:14:58;;;;;;;6.87;2.83;;;;;;;25.66;73.83;99889.31;5108239;28;20178;-64
2023/08/25 00:17:23;;;;;;;6.53;3.00;;;;;;;25.65;74.12;99894.28;5095377;28;20182;-65
2023/08/25 00:19:48;;;;;;;4.60;2.97;;;;;;;25.68;73.84;99889.69;5093516;27;20208;-65
2023/08/25 00:22:14;;;;;;;9.50;2.73;;;;;;;25.73;73.26;99895.78;5117968;27;20221;-63
2023/08/25 00:24:39;;;;;;;7.37;3.30;;;;;;;25.83;72.81;99894.78;5106309;28;20176;-64
2023/08/25 00:27:05;;;;;;;7.53;2.80;;;;;;;25.89;72.63;99878.56;5104316;28;20227;-65
2023/08/25 00:29:30;;;;;;;4.73;2.90;;;;;;;25.78;73.04;99885.78;5091903;28;20166;-64
2023/08/25 00:31:56;;;;;;;4.37;2.77;;;;;;;25.84;72.88;99884.84;5094360;28;20606;-65
2023/08/25 00:34:21;;;;;;;4.30;3.10;;;;;;;25.89;72.40;99874.88;5108611;28;20542;-66
2023/08/25 00:36:47;;;;;;;5.13;2.67;;;;;;;25.90;72.20;99874.41;5109021;28;20174;-65
2023/08/25 00:39:12;;;;;;;5.13;2.70;;;;;;;25.90;72.37;99862.81;5073182;28;20717;-65
2023/08/25 00:41:38;;;;;;;12.70;3.20;;;;;;;25.88;72.91;99868.25;5094152;28;20549;-65
2023/08/25 00:44:03;;;;;;;7.80;3.27;;;;;;;25.93;72.67;99858.25;5091614;28;20552;-65
2023/08/25 00:46:29;;;;;;;8.43;3.00;;;;;;;25.83;72.18;99860.09;5092206;28;20212;-65
2023/08/25 00:48:55;;;;;;;4.63;2.80;;;;;;;25.80;72.71;99860.94;5091946;28;20316;-65
2023/08/25 00:51:20;;;;;;;5.53;2.87;;;;;;;25.79;73.07;99847.75;5073987;27;20174;-64
2023/08/25 00:53:46;;;;;;;9.03;3.10;;;;;;;25.80;73.04;99845.69;5074903;28;20256;-64
2023/08/25 00:56:13;;;;;;;4.67;2.60;;;;;;;25.86;72.52;99844.75;5103630;28;20228;-65
2023/08/25 00:58:38;;;;;;;6.13;3.30;;;;;;;25.87;72.63;99846.38;5072770;28;20194;-64
2023/08/25 01:01:04;;;;;;;8.57;2.70;;;;;;;25.89;72.55;99845.94;5091843;28;20479;-64
2023/08/25 01:03:29;;;;;;;5.90;3.10;;;;;;;25.82;72.47;99841.09;5111442;28;20217;-65
2023/08/25 01:05:55;;;;;;;5.00;2.60;;;;;;;25.81;72.38;99827.91;5111407;28;20260;-65
2023/08/25 01:08:21;;;;;;;7.30;2.63;;;;;;;25.89;72.24;99837.25;5110569;28;20189;-64
2023/08/25 01:11:01;;;;;;;6.40;2.87;;;;;;;25.87;72.35;99834.81;5115774;27;20173;-64
2023/08/25 01:13:31;;;;;;;3.90;2.60;;;;;;;25.92;72.27;99834.31;5130886;27;20422;-64
2023/08/25 01:15:56;;;;;;;8.70;2.90;;;;;;;25.93;71.57;99844.63;5119008;27;20489;-63
2023/08/25 01:18:28;;;;;;;8.90;2.87;;;;;;;25.94;72.23;99842.56;5089716;28;20448;-64
2023/08/25 01:20:54;;;;;;;4.47;2.87;;;;;;;25.95;72.33;99832.63;5071469;28;20926;-65
2023/08/25 01:23:31;;;;;;;4.40;2.73;;;;;;;25.96;71.70;99840.88;5090727;28;20485;-64
2023/08/25 01:25:56;;;;;;;5.07;2.50;;;;;;;25.96;72.15;99840.88;5082261;28;20216;-64
2023/08/25 01:28:21;;;;;;;3.77;2.67;;;;;;;25.97;71.65;99839.59;5075823;28;20403;-64
2023/08/25 01:30:48;;;;;;;5.20;2.27;;;;;;;25.96;72.02;99840.88;5110896;28;20170;-65
2023/08/25 01:33:15;;;;;;;10.53;3.27;;;;;;;25.98;71.97;99843.28;5110074;28;20244;-65
2023/08/25 01:36:03;;;;;;;5.17;2.97;;;;;;;25.97;71.75;99838.78;5095632;28;20432;-65
2023/08/25 01:38:43;;;;;;;4.97;2.67;;;;;;;25.95;71.61;99835.50;5093485;27;20468;-65
2023/08/25 01:41:24;;;;;;;4.10;2.90;;;;;;;25.93;71.54;99850.41;5110327;27;20439;-65
2023/08/25 01:43:50;;;;;;;7.63;3.10;;;;;;;25.93;71.96;99841.75;5093542;28;20411;-64
2023/08/25 01:46:16;;;;;;;4.53;2.70;;;;;;;25.93;71.43;99840.91;5081779;28;20435;-64
2023/08/25 01:48:43;;;;;;;4.30;2.80;;;;;;;25.92;71.43;99834.31;5110737;28;20444;-64
2023/08/25 01:51:09;;;;;;;5.07;2.83;;;;;;;25.93;71.59;99827.28;5097932;28;20575;-65
2023/08/25 01:53:35;;;;;;;5.30;2.67;;;;;;;25.93;72.04;99829.34;5071911;28;20810;-65
2023/08/25 01:56:00;;;;;;;8.63;3.03;;;;;;;25.94;71.44;99820.22;5070684;28;20423;-65
2023/08/25 01:58:27;;;;;;;6.03;2.73;;;;;;;25.96;71.36;99822.69;5110241;28;20206;-65
2023/08/25 02:00:52;;;;;;;9.13;3.37;;;;;;;25.96;71.92;99814.84;5079913;28;20263;-64
2023/08/25 02:03:18;;;;;;;5.80;2.77;;;;;;;25.96;71.50;99806.16;5096197;28;20823;-65
2023/08/25 02:05:43;;;;;;;8.00;3.03;;;;;;;25.96;71.86;99811.94;5099725;28;20569;-63
2023/08/25 02:08:09;;;;;;;6.27;2.93;;;;;;;25.96;71.88;99797.47;5088098;28;20175;-64
2023/08/25 02:10:34;;;;;;;7.13;3.57;;;;;;;25.97;71.32;99795.38;5089613;28;20208;-65
2023/08/25 02:12:59;;;;;;;6.10;2.60;;;;;;;25.97;71.32;99804.88;5111417;27;20177;-65
2023/08/25 02:15:25;;;;;;;7.30;3.00;;;;;;;25.97;71.14;99784.63;5106837;28;20178;-63
2023/08/25 02:17:50;;;;;;;4.10;2.67;;;;;;;25.97;71.58;99784.63;5115959;27;20562;-65
2023/08/25 02:20:16;;;;;;;6.87;2.90;;;;;;;25.96;71.77;99783.00;5120482;27;20178;-65
2023/08/25 02:22:42;;;;;;;4.93;2.50;;;;;;;25.97;71.49;99778.00;5101427;27;20189;-65
2023/08/25 02:25:07;;;;;;;4.70;2.73;;;;;;;25.93;71.36;99778.09;5105926;28;20521;-64
2023/08/25 02:27:33;;;;;;;3.57;2.20;;;;;;;25.96;71.77;99782.19;5106034;28;20290;-65
2023/08/25 02:29:58;;;;;;;6.37;3.63;;;;;;;25.96;71.74;99777.22;5109924;28;20177;-64
2023/08/25 02:32:24;;;;;;;4.10;2.80;;;;;;;25.96;71.13;99780.13;5104199;27;20189;-64
2023/08/25 02:34:49;;;;;;;8.70;3.43;;;;;;;25.96;71.94;99783.00;5102867;28;20262;-64
2023/08/25 02:37:14;;;;;;;6.40;3.20;;;;;;;25.96;71.90;99770.59;5109076;28;20604;-65
2023/08/25 02:39:40;;;;;;;4.00;2.60;;;;;;;25.96;71.94;99770.59;5107691;28;20202;-64
2023/08/25 02:42:06;;;;;;;9.80;3.20;;;;;;;25.97;71.55;99761.50;5071061;28;20271;-63
2023/08/25 02:44:31;;;;;;;4.57;2.83;;;;;;;25.96;71.37;99742.50;5089068;28;20166;-64
2023/08/25 02:46:56;;;;;;;5.03;2.70;;;;;;;25.96;71.82;99756.97;5091505;28;20186;-64
2023/08/25 02:49:23;;;;;;;4.67;2.80;;;;;;;25.96;71.70;99741.66;5092312;27;20191;-64
2023/08/25 02:51:49;;;;;;;3.40;2.53;;;;;;;25.96;71.13;99745.41;5091069;28;20182;-65
2023/08/25 02:54:14;;;;;;;4.30;2.80;;;;;;;25.95;71.23;99735.06;5089763;28;20412;-63
2023/08/25 02:56:40;;;;;;;7.13;3.13;;;;;;;25.96;71.77;99733.81;5108958;28;20554;-65
2023/08/25 02:59:05;;;;;;;5.40;2.50;;;;;;;25.96;71.31;99725.16;5108450;28;20185;-64
2023/08/25 03:01:30;;;;;;;4.63;2.73;;;;;;;25.95;71.77;99723.50;5101590;28;20178;-65
2023/08/25 03:03:56;;;;;;;8.40;3.13;;;;;;;25.93;70.98;99720.25;5091081;28;20182;-65
2023/08/25 03:06:22;;;;;;;4.30;2.70;;;;;;;25.93;71.09;99714.44;5088638;28;20174;-64
2023/08/25 03:08:47;;;;;;;8.50;3.40;;;;;;;25.94;71.60;99709.50;5090515;28;20181;-64
2023/08/25 03:11:13;;;;;;;4.60;2.87;;;;;;;25.92;71.48;99694.63;5109136;28;20174;-65
2023/08/25 03:13:38;;;;;;;5.87;3.20;;;;;;;25.92;71.51;99700.44;5107108;28;20314;-63
2023/08/25 03:16:04;;;;;;;2.97;2.37;;;;;;;25.91;71.19;99693.84;5102176;28;20192;-64
2023/08/25 03:18:29;;;;;;;6.20;3.07;;;;;;;25.91;70.68;99687.19;5106135;27;20794;-64
2023/08/25 03:20:55;;;;;;;4.90;2.87;;;;;;;25.91;71.39;99690.94;5108682;28;20225;-64
2023/08/25 03:23:21;;;;;;;5.80;2.80;;;;;;;25.92;71.57;99689.69;5105266;28;20181;-65
2023/08/25 03:25:46;;;;;;;4.30;2.73;;;;;;;25.93;70.92;99679.75;5081934;28;20272;-64
2023/08/25 03:28:11;;;;;;;5.53;2.60;;;;;;;25.93;71.17;99676.84;5088529;28;20163;-65
2023/08/25 03:30:37;;;;;;;4.40;2.50;;;;;;;25.94;71.14;99680.56;5090793;28;20189;-64
2023/08/25 03:33:04;;;;;;;6.60;3.07;;;;;;;25.93;70.61;99679.75;5094259;28;20702;-64
2023/08/25 03:35:34;;;;;;;5.20;2.90;;;;;;;25.93;70.58;99668.16;5086931;28;20615;-64
2023/08/25 03:38:00;;;;;;;7.53;3.37;;;;;;;25.92;71.46;99666.53;5114431;27;20447;-65
2023/08/25 03:40:25;;;;;;;3.90;2.70;;;;;;;25.92;70.92;99666.53;5124989;27;20857;-65
2023/08/25 03:42:50;;;;;;;6.30;2.67;;;;;;;25.94;71.55;99674.78;5090107;28;20186;-65
2023/08/25 03:45:16;;;;;;;3.47;2.70;;;;;;;25.92;70.91;99663.66;5088355;28;20163;-64
2023/08/25 03:47:41;;;;;;;4.83;2.93;;;;;;;25.93;71.15;99664.44;5079261;28;20185;-63
2023/08/25 03:50:07;;;;;;;4.60;2.43;;;;;;;25.92;70.93;99666.53;5107798;28;20201;-64
2023/08/25 03:52:33;;;;;;;4.93;3.30;;;;;;;25.92;71.22;99662.81;5105794;28;20174;-64
2023/08/25 03:54:58;;;;;;;5.00;2.90;;;;;;;25.91;71.18;99664.06;5096122;28;20582;-65
2023/08/25 03:57:24;;;;;;;5.17;2.50;;;;;;;25.92;71.09;99665.72;5105665;28;20189;-65
2023/08/25 03:59:49;;;;;;;5.00;2.50;;;;;;;25.91;70.50;99667.81;5091581;28;20186;-64
2023/08/25 04:02:15;;;;;;;5.03;2.80;;;;;;;25.89;70.38;99661.59;5091480;28;20174;-64
2023/08/25 04:04:40;;;;;;;3.97;2.47;;;;;;;25.88;70.33;99667.84;5117214;27;20190;-64
2023/08/25 04:07:05;;;;;;;5.37;3.07;;;;;;;25.87;70.27;99669.94;5132432;27;20250;-65
2023/08/25 04:09:31;;;;;;;7.13;2.90;;;;;;;25.87;70.27;99655.47;5112070;27;20178;-65
2023/08/25 04:11:57;;;;;;;6.33;2.73;;;;;;;25.87;70.29;99658.34;5091970;28;20163;-64
2023/08/25 04:14:22;;;;;;;5.50;2.90;;;;;;;25.88;71.02;99664.94;5091514;28;20185;-65
2023/08/25 04:16:47;;;;;;;4.50;2.80;;;;;;;25.88;70.92;99659.97;5109137;28;20197;-64
2023/08/25 04:19:16;;;;;;;7.13;3.27;;;;;;;25.86;70.79;99650.13;5122124;27;20651;-65
2023/08/25 04:21:42;;;;;;;6.17;3.10;;;;;;;25.85;70.15;99642.72;5132176;27;20232;-65
2023/08/25 04:24:08;;;;;;;7.80;2.87;;;;;;;25.86;70.49;99644.34;5118550;27;20473;-65
2023/08/25 04:26:33;;;;;;;6.70;3.10;;;;;;;25.87;70.63;99641.00;5108169;28;20177;-65
2023/08/25 04:28:58;;;;;;;7.03;2.90;;;;;;;25.87;70.41;99649.69;5112124;28;20207;-65
2023/08/25 04:31:24;;;;;;;4.07;2.77;;;;;;;25.88;70.85;99648.41;5108566;28;20259;-64
2023/08/25 04:33:50;;;;;;;6.50;3.03;;;;;;;25.88;70.52;99633.94;5123521;27;20184;-65
2023/08/25 04:36:15;;;;;;;5.00;3.27;;;;;;;25.89;70.33;99652.13;5114270;27;20182;-65
2023/08/25 04:38:40;;;;;;;4.97;2.60;;;;;;;25.89;70.34;99650.03;5075656;28;20206;-64
2023/08/25 04:41:06;;;;;;;6.00;3.10;;;;;;;25.90;70.89;99645.88;5091863;28;20625;-63
2023/08/25 04:43:31;;;;;;;4.50;2.93;;;;;;;25.89;70.13;99649.25;5102522;27;20184;-64
2023/08/25 04:45:57;;;;;;;7.73;3.70;;;;;;;25.89;70.90;99641.34;5111025;28;20205;-65
2023/08/25 04:48:22;;;;;;;6.27;3.10;;;;;;;25.89;70.40;99649.25;5111304;28;20154;-64
2023/08/25 04:50:48;;;;;;;7.33;3.00;;;;;;;25.89;71.06;99649.25;5108983;28;20178;-64
2023/08/25 04:53:14;;;;;;;4.10;2.80;;;;;;;25.88;70.85;99659.97;5091601;28;20187;-65
2023/08/25 04:55:39;;;;;;;5.20;3.43;;;;;;;25.89;70.47;99672.38;5102409;28;20185;-64
2023/08/25 04:58:04;;;;;;;5.80;3.30;;;;;;;25.89;70.40;99684.75;5091178;28;20276;-65
2023/08/25 05:00:30;;;;;;;4.60;2.80;;;;;;;25.89;71.10;99707.09;5094573;28;20186;-65
2023/08/25 05:02:55;;;;;;;8.03;3.20;;;;;;;25.89;70.85;99736.00;5092820;28;20177;-64
2023/08/25 05:05:21;;;;;;;5.80;3.10;;;;;;;25.86;70.04;99769.53;5093720;28;20196;-64
2023/08/25 05:07:47;;;;;;;5.57;2.90;;;;;;;25.86;70.11;99794.75;5098588;28;20189;-64
2023/08/25 05:10:12;;;;;;;5.77;3.20;;;;;;;25.81;70.26;99815.50;5093618;28;20642;-65
2023/08/25 05:12:38;;;;;;;9.20;3.23;;;;;;;25.78;70.36;99819.25;5088746;28;20431;-63
2023/08/25 05:15:04;;;;;;;4.27;2.93;;;;;;;25.65;70.35;99833.53;5091213;28;20536;-64
2023/08/25 05:17:29;;;;;;;10.30;2.87;;;;;;;25.65;70.46;99842.22;5090772;28;20611;-63
2023/08/25 05:19:55;;;;;;;10.93;3.73;;;;;;;25.67;71.00;99854.19;5111734;27;20519;-64
2023/08/25 05:22:20;;;;;;;4.93;3.17;;;;;;;25.67;71.07;99885.16;5131494;27;20751;-64
2023/08/25 05:24:46;;;;;;;5.43;3.30;;;;;;;25.65;71.15;99954.19;5107321;27;20636;-64
2023/08/25 05:27:11;;;;;;;4.80;3.00;;;;;;;25.67;70.73;99984.31;5090884;28;20167;-65
2023/08/25 05:29:37;;;;;;;6.57;3.43;;;;;;;25.64;71.04;99990.97;5090647;28;20170;-63
2023/08/25 05:32:02;;;;;;;5.80;3.33;;;;;;;25.61;71.18;100100.91;5109553;27;20185;-64
2023/08/25 05:34:28;;;;;;;8.77;3.70;;;;;;;25.19;73.01;100102.22;5096385;28;20181;-64
2023/08/25 05:36:53;;;;;;;5.90;3.33;;;;;;;24.75;75.29;100040.88;5090576;28;20229;-65
2023/08/25 05:39:20;;;;;;;6.80;3.87;;;;;;;24.94;74.78;100048.91;5090250;28;20214;-64
2023/08/25 05:41:45;;;;;;;6.43;4.07;;;;;;;25.13;74.01;100040.41;5091794;28;20181;-65
2023/08/25 05:44:11;;;;;;;17.17;3.77;;;;;;;25.27;73.64;100033.63;5106060;27;20422;-65
2023/08/25 05:46:36;;;;;;;7.57;3.47;;;;;;;25.33;73.39;100018.28;5067826;28;20191;-64
2023/08/25 05:49:02;;;;;;;14.53;3.80;;;;;;;25.43;72.81;100022.28;5087989;28;20225;-65
2023/08/25 05:51:27;;;;;;;8.77;3.33;;;;;;;25.51;72.61;100004.41;5088953;28;20182;-65
2023/08/25 05:53:53;;;;;;;7.10;3.23;;;;;;;25.57;72.26;99944.81;5091229;28;20240;-64
2023/08/25 05:56:18;;;;;;;7.90;3.50;;;;;;;25.59;71.83;99913.38;5105578;28;20181;-64
2023/08/25 05:58:44;;;;;;;9.20;3.73;;;;;;;25.49;72.11;99893.34;5089766;28;20210;-65
2023/08/25 06:01:10;;;;;;;9.67;3.60;;;;;;;25.50;71.95;99910.25;5098237;28;20212;-64
2023/08/25 06:03:36;;;;;;;7.00;3.57;;;;;;;25.40;72.37;99914.13;5094502;28;20216;-63
2023/08/25 06:06:01;;;;;;;9.00;3.17;;;;;;;25.52;72.19;99906.91;5097419;28;20420;-64
2023/08/25 06:08:27;;;;;;;5.90;3.20;;;;;;;25.42;72.48;99900.06;5075871;28;20178;-64
2023/08/25 06:10:52;;;;;;;7.63;3.23;;;;;;;25.14;73.87;99883.13;5071300;28;20174;-65
2023/08/25 06:13:18;;;;;;;6.93;3.50;;;;;;;24.89;74.66;99888.44;5074593;27;20255;-64
2023/08/25 06:15:43;;;;;;;12.53;3.30;;;;;;;25.18;73.67;99889.66;5081494;28;20232;-65
2023/08/25 06:18:09;;;;;;;10.30;3.47;;;;;;;25.21;73.67;99911.91;5096221;28;20205;-65
2023/08/25 06:20:35;;;;;;;5.93;3.40;;;;;;;25.13;73.79;99916.16;5090055;28;20238;-64
2023/08/25 06:23:00;;;;;;;6.10;2.90;;;;;;;24.97;74.55;99918.03;5078418;28;20182;-63
2023/08/25 06:25:26;;;;;;;9.10;3.73;;;;;;;24.89;75.22;99914.44;5089812;28;20190;-64
2023/08/25 06:27:51;;;;;;;8.70;2.80;;;;;;;25.09;74.48;99935.59;5094210;28;20177;-64
2023/08/25 06:30:17;;;;;;;8.20;3.30;;;;;;;25.19;74.03;99949.09;5092008;28;20182;-65
2023/08/25 06:32:43;;;;;;;7.03;3.10;;;;;;;25.39;73.22;99943.47;5092749;27;20213;-65
2023/08/25 06:35:10;;;;;;;7.23;3.40;;;;;;;25.41;73.08;99938.88;5096729;27;20317;-66
2023/08/25 06:37:35;;;;;;;8.23;3.00;;;;;;;25.43;73.09;99945.03;5089071;28;20818;-65
2023/08/25 06:40:05;;;;;;;4.40;2.27;;;;;;;25.48;72.76;99967.69;5084589;28;20459;-66
2023/08/25 06:42:31;;;;;;;8.10;2.87;;;;;;;25.46;72.42;99973.09;5089529;28;20189;-65
2023/08/25 06:44:56;;;;;;;6.50;2.40;;;;;;;25.34;73.45;99965.00;5092112;28;20543;-65
2023/08/25 06:47:22;;;;;;;5.80;2.67;;;;;;;25.26;73.82;99969.25;5090404;28;20192;-65
2023/08/25 06:49:47;;;;;;;5.20;2.40;;;;;;;25.35;72.81;99966.66;5088468;28;20206;-65
2023/08/25 06:52:13;;;;;;;10.33;3.13;;;;;;;25.41;72.70;99955.41;5090576;28;20186;-66
2023/08/25 06:54:38;;;;;;;4.67;2.93;;;;;;;25.43;73.05;99959.50;5090754;28;20184;-64
2023/08/25 06:57:04;;;;;;;5.40;2.30;;;;;;;25.31;73.49;99967.94;5089060;28;20174;-65
2023/08/25 06:59:29;;;;;;;5.20;2.97;;;;;;;25.35;73.42;99972.44;5089064;28;20275;-65
2023/08/25 07:01:54;;;;;;;5.33;2.57;;;;;;;25.25;73.93;99987.00;5096486;28;20181;-65
2023/08/25 07:04:20;;;;;;;6.63;2.73;;;;;;;24.98;74.78;99995.59;5098063;28;20182;-65
2023/08/25 07:06:45;;;;;;;6.60;2.30;;;;;;;24.88;75.41;99959.00;5089963;28;20228;-65
2023/08/25 07:09:13;;;;;;;5.80;2.70;;;;;;;25.07;74.42;99961.22;5085144;28;20280;-64
2023/08/25 07:11:38;;;;;;;6.60;2.67;;;;;;;25.11;74.61;99962.00;5091030;28;20186;-65
2023/08/25 07:14:04;;;;;;;7.63;2.87;;;;;;;25.02;74.72;99947.28;5102544;28;20439;-64
2023/08/25 07:16:29;;;;;;;6.33;2.67;;;;;;;25.08;74.08;99945.53;5105965;28;20568;-64
2023/08/25 07:18:55;;;;;;;3.80;2.30;;;;;;;24.89;75.33;99934.66;5090528;28;20194;-65
2023/08/25 07:21:21;;;;;;;9.27;2.80;;;;;;;25.02;74.52;99941.50;5096523;28;20241;-65
2023/08/25 07:23:47;;;;;;;5.17;2.60;;;;;;;24.52;76.47;99951.19;5077027;28;20521;-64
2023/08/25 07:26:13;;;;;;;6.00;2.77;;;;;;;24.11;78.28;99945.47;5101201;28;20444;-66
2023/08/25 07:28:38;;;;;;;10.77;2.80;;;;;;;24.03;78.66;99943.88;5084921;28;20179;-66
2023/08/25 07:31:04;;;;;;;19.30;3.40;;;;;;;23.70;80.29;99967.66;5086586;28;20178;-65
2023/08/25 07:33:30;;;;;;;8.80;3.23;;;;;;;23.84;79.38;99937.88;5095339;27;20260;-64
2023/08/25 07:35:57;;;;;;;14.37;3.30;;;;;;;23.96;79.12;99946.03;5104658;28;20314;-64
2023/08/25 07:38:23;;;;;;;14.50;3.20;;;;;;;24.00;79.86;99941.88;5104954;28;20197;-64
2023/08/25 07:40:48;;;;;;;15.40;4.33;;;;;;;23.85;79.44;99934.56;5093135;28;20744;-64
2023/08/25 07:43:14;;;;;;;14.50;3.37;;;;;;;23.72;80.91;99929.72;5070706;28;20894;-64
2023/08/25 07:45:39;;;;;;;8.37;3.17;;;;;;;24.06;79.09;99917.09;5088169;28;20259;-71
2023/08/25 07:48:05;;;;;;;5.33;2.90;;;;;;;23.73;79.89;99912.00;5082329;28;20182;-65
2023/08/25 07:50:31;;;;;;;9.27;3.60;;;;;;;24.21;78.04;99901.25;5088769;28;20542;-65
2023/08/25 07:52:56;;;;;;;7.13;3.27;;;;;;;24.21;79.10;99889.72;5089327;28;20329;-65
2023/08/25 07:55:22;;;;;;;6.27;3.20;;;;;;;23.96;78.84;99883.41;5090872;28;20648;-66
2023/08/25 07:57:47;;;;;;;9.33;3.90;;;;;;;23.62;80.03;99882.47;5070062;28;20186;-66
2023/08/25 08:00:15;;;;;;;7.80;3.50;;;;;;;23.82;80.09;99883.50;5087899;28;20276;-65
2023/08/25 08:02:48;;;;;;;13.23;3.30;;;;;;;23.64;80.61;99868.44;5079406;28;20170;-66
2023/08/25 08:05:17;;;;;;;6.63;3.63;;;;;;;24.05;79.74;99866.41;5105680;28;20469;-64
2023/08/25 08:07:44;;;;;;;14.13;3.73;;;;;;;24.08;79.59;99850.31;5093666;28;20511;-67
2023/08/25 08:10:10;;;;;;;22.10;4.83;;;;;;;24.17;78.92;99842.78;5092164;28;20436;-67
2023/08/25 08:12:35;;;;;;;17.90;4.50;;;;;;;24.06;78.84;99824.78;5092213;28;20585;-66
2023/08/25 08:15:01;;;;;;;21.00;5.07;;;;;;;24.12;79.28;99808.63;5089971;28;20193;-65
2023/08/25 08:17:26;;;;;;;26.93;4.80;;;;;;;23.75;80.43;99788.47;5095356;28;20264;-65
2023/08/25 08:19:51;;;;;;;26.83;4.23;;;;;;;24.06;79.29;99789.34;5089374;28;20206;-65
2023/08/25 08:22:17;;;;;;;35.40;4.80;;;;;;;24.33;78.61;99787.38;5096697;28;20226;-65
2023/08/25 08:24:49;;;;;;;20.43;3.40;;;;;;;24.26;78.46;99773.84;5088922;28;20170;-65
2023/08/25 08:27:17;;;;;;;18.83;4.30;;;;;;;24.43;77.72;99775.66;5088594;28;20192;-63
2023/08/25 08:29:44;;;;;;;21.00;4.13;;;;;;;24.49;77.16;99762.38;5104715;28;20420;-65
2023/08/25 08:32:14;;;;;;;12.03;3.50;;;;;;;24.24;77.15;99756.13;5071280;28;20437;-65
2023/08/25 08:34:40;;;;;;;16.93;3.37;;;;;;;24.52;76.85;99773.06;5106298;28;20435;-64
2023/08/25 08:37:08;;;;;;;12.47;3.77;;;;;;;24.36;77.36;99775.78;5104875;28;20424;-66
2023/08/25 08:39:34;;;;;;;9.60;3.13;;;;;;;24.55;76.64;99788.69;5102220;28;20221;-65
2023/08/25 08:42:02;;;;;;;8.03;3.50;;;;;;;24.38;77.37;99781.91;5105359;27;21115;-66
2023/08/25 08:44:29;;;;;;;13.17;3.17;;;;;;;24.44;77.03;99759.16;5082962;28;20181;-65
2023/08/25 08:46:54;;;;;;;10.90;2.87;;;;;;;24.49;76.87;99745.06;5094113;28;20497;-65
2023/08/25 08:49:22;;;;;;;13.13;3.37;;;;;;;24.44;77.51;99708.03;5073208;28;20435;-65
2023/08/25 08:51:47;;;;;;;8.83;3.53;;;;;;;24.36;77.76;99685.47;5093495;28;20273;-65
2023/08/25 08:54:12;;;;;;;5.93;3.33;;;;;;;24.58;76.71;99666.59;5073914;28;20864;-66
2023/08/25 08:56:38;;;;;;;14.53;3.20;;;;;;;24.70;75.88;99637.13;5111574;28;20648;-66
2023/08/25 08:59:04;;;;;;;7.27;3.10;;;;;;;24.82;75.41;99695.06;5111647;28;20212;-65
2023/08/25 09:01:30;;;;;;;5.83;3.13;;;;;;;24.71;76.04;99687.84;5095794;28;20464;-65
2023/08/25 09:03:57;;;;;;;8.20;3.13;;;;;;;24.87;75.50;99705.28;5069451;28;20190;-64
2023/08/25 09:06:22;;;;;;;5.00;2.93;;;;;;;24.28;77.76;99739.59;5103269;28;20186;-65
2023/08/25 09:08:48;;;;;;;5.87;3.20;;;;;;;24.41;77.95;99737.75;5091061;28;20424;-65
2023/08/25 09:11:13;;;;;;;7.13;3.60;;;;;;;24.42;77.78;99758.75;5090491;28;20175;-66
2023/08/25 09:13:39;;;;;;;5.63;3.23;;;;;;;24.54;77.48;99772.63;5078306;28;20204;-66
2023/08/25 09:16:12;;;;;;;5.53;3.10;;;;;;;24.58;77.17;99805.97;5111317;28;20177;-66
2023/08/25 09:18:37;;;;;;;5.40;3.60;;;;;;;24.76;76.40;99831.72;5111513;28;20194;-65
2023/08/25 09:21:05;;;;;;;6.73;3.47;;;;;;;24.77;76.14;99845.72;5089239;28;20503;-66
2023/08/25 09:23:31;;;;;;;9.60;3.53;;;;;;;24.73;76.78;99830.50;5038962;28;20269;-66
2023/08/25 09:25:57;;;;;;;6.83;3.90;;;;;;;24.78;76.13;99846.56;5106493;28;21293;-66
2023/08/25 09:28:23;;;;;;;6.73;3.30;;;;;;;24.71;77.03;99838.81;5110970;28;20170;-65
2023/08/25 09:30:49;;;;;;;5.10;3.43;;;;;;;24.74;76.69;99837.91;5107657;28;20439;-65
2023/08/25 09:33:14;;;;;;;6.00;3.47;;;;;;;24.76;76.68;99823.06;5111395;28;20188;-66
2023/08/25 09:35:40;;;;;;;6.57;3.37;;;;;;;24.75;77.10;99844.53;5107211;28;20177;-66
2023/08/25 09:38:06;;;;;;;10.37;4.27;;;;;;;24.68;77.28;99842.53;5109666;28;20178;-65
2023/08/25 09:40:31;;;;;;;5.50;3.70;;;;;;;24.53;78.14;99834.50;5110428;28;20416;-66
2023/08/25 09:43:00;;;;;;;7.57;3.80;;;;;;;24.47;78.61;99839.91;5097331;28;20267;-66
2023/08/25 09:45:27;;;;;;;6.30;3.50;;;;;;;24.43;79.10;99824.72;5089767;28;20609;-64
2023/08/25 09:47:53;;;;;;;6.50;3.93;;;;;;;24.40;79.43;99825.59;5089848;28;20427;-66
2023/08/25 09:50:19;;;;;;;6.77;3.87;;;;;;;24.50;78.96;99815.97;5071710;28;20983;-65
2023/08/25 09:52:46;;;;;;;7.23;4.03;;;;;;;24.65;77.75;99822.41;5091713;28;20186;-65
2023/08/25 09:55:11;;;;;;;6.13;3.50;;;;;;;24.67;78.15;99823.59;5099343;28;20423;-65
2023/08/25 09:57:37;;;;;;;9.93;3.63;;;;;;;24.88;76.64;99831.13;5100007;28;20497;-65
2023/08/25 10:00:08;;;;;;;7.70;3.50;;;;;;;24.75;77.61;99842.47;5090065;28;20556;-64
2023/08/25 10:02:34;;;;;;;9.40;3.37;;;;;;;24.71;78.19;99837.97;5091998;28;20828;-66
2023/08/25 10:05:03;;;;;;;7.73;3.60;;;;;;;24.80;77.92;99847.75;5071947;28;20415;-65
2023/08/25 10:07:29;;;;;;;6.10;3.67;;;;;;;24.65;79.00;99852.09;5062729;28;20427;-65
2023/08/25 10:09:55;;;;;;;7.03;3.70;;;;;;;24.77;77.73;99880.38;5079540;28;20613;-67
2023/08/25 10:12:20;;;;;;;9.10;4.00;;;;;;;24.84;78.30;99882.34;5089980;28;20412;-66
2023/08/25 10:14:45;;;;;;;7.00;3.27;;;;;;;24.84;78.48;99891.81;5092233;28;20177;-67
2023/08/25 10:17:11;;;;;;;6.03;3.60;;;;;;;24.65;80.35;99883.84;5071580;28;20182;-67
2023/08/25 10:19:36;;;;;;;7.10;3.47;;;;;;;24.71;80.40;99892.81;5089298;28;20186;-65
2023/08/25 10:22:02;;;;;;;3.70;2.93;;;;;;;24.69;80.23;99883.78;5101369;28;20249;-66
2023/08/25 10:24:28;;;;;;;5.23;3.60;;;;;;;24.64;81.58;99885.06;5067733;28;20194;-66
2023/08/25 10:26:54;;;;;;;5.60;3.67;;;;;;;24.56;81.02;99880.63;5088536;28;20177;-66
2023/08/25 10:29:21;;;;;;;6.03;3.67;;;;;;;24.64;81.27;99879.31;5088168;28;20798;-65
2023/08/25 10:32:00;;;;;;;4.80;3.17;;;;;;;24.74;80.19;99878.34;5071949;28;20863;-65
2023/08/25 10:34:41;;;;;;;6.10;4.03;;;;;;;24.75;80.42;99891.56;5106781;28;20521;-65
2023/08/25 10:37:10;;;;;;;5.20;3.80;;;;;;;24.70;80.72;99888.31;5091204;28;20495;-66
2023/08/25 10:39:57;;;;;;;7.00;3.60;;;;;;;24.67;81.47;99875.56;5096349;28;20909;-66
2023/08/25 10:42:23;;;;;;;5.67;3.90;;;;;;;24.75;80.71;99874.22;5087963;27;20431;-63
2023/08/25 10:45:06;;;;;;;9.87;4.80;;;;;;;24.81;80.35;99866.72;5102772;28;21275;-66
2023/08/25 10:47:31;;;;;;;9.60;4.50;;;;;;;24.67;80.81;99881.34;5089101;28;20438;-66
2023/08/25 10:50:01;;;;;;;8.37;5.03;;;;;;;24.72;80.89;99886.63;5105150;28;20451;-66
2023/08/25 10:52:26;;;;;;;13.33;4.67;;;;;;;24.57;81.31;99878.53;5091408;28;20186;-66
2023/08/25 10:54:52;;;;;;;5.93;4.37;;;;;;;24.74;80.33;99900.63;5094372;28;20415;-66
2023/08/25 10:57:27;;;;;;;7.10;5.20;;;;;;;24.69;79.81;99893.25;5100272;28;20178;-64
2023/08/25 10:59:56;;;;;;;7.10;5.00;;;;;;;24.80;80.08;99899.72;5104312;28;20497;-66
2023/08/25 11:02:34;;;;;;;11.20;7.80;;;;;;;24.66;79.95;99888.38;5105987;28;20969;-66
2023/08/25 11:05:36;;;;;;;8.47;5.10;;;;;;;24.60;79.48;99890.09;5096106;28;21339;-66
2023/08/25 11:08:03;;;;;;;6.57;4.70;;;;;;;24.62;79.31;99886.75;5006360;28;20509;-65
2023/08/25 11:10:36;;;;;;;6.53;4.90;;;;;;;24.63;79.94;99880.56;5079314;28;20475;-65
2023/08/25 11:13:06;;;;;;;7.00;4.77;;;;;;;24.63;79.19;99882.66;5090979;28;20462;-67
2023/08/25 11:15:35;;;;;;;6.47;4.70;;;;;;;24.65;79.70;99886.75;5087486;28;20436;-66
2023/08/25 11:18:00;;;;;;;9.63;4.87;;;;;;;24.63;79.70;99882.66;5107601;28;20436;-65
2023/08/25 11:20:26;;;;;;;8.63;4.70;;;;;;;24.64;79.78;99873.53;5107972;28;20431;-66
2023/08/25 11:22:52;;;;;;;7.63;5.10;;;;;;;24.64;79.46;99870.63;5095535;28;20217;-66
2023/08/25 11:25:17;;;;;;;7.70;4.57;;;;;;;24.63;78.27;99859.56;5090017;28;20194;-65
2023/08/25 11:27:43;;;;;;;6.17;4.30;;;;;;;24.70;78.63;99848.72;5097155;27;20824;-66